Oberpullendorf, Austria
Current Conditions -  °F | °C
As of 10:50 PM on Saturday 25 Oct 2014 (Local Time) from LOWW Reporting Station
Broken Clouds Broken Clouds  
Wind Chill: 43°   Ceiling: 900
Heat Index: 43°   Visibility: 5mi
Dew Point: 41°   Wind: 2mph
Humidity: 93%   Direction: NA
Pressure: 30.27"   Gusts: NA
Location:  47.5°N, 16.5°E
Report Text: LOWW 252050Z VRB02KT 8000 FEW007 BKN009 06/05 Q1025 NOSIG
Loading
Personal Weather Stations






























Interactive Weather Map
Tropical Storm Tracking
New forecast layout! Learn more

10-Day Weather Forecast

Advertisements
Track Severe Weather on mobile